sensor_id;sensor_type;location;lat;lon;timestamp;P1;durP1;ratioP1;P2;durP2;ratioP2
19535;SDS011;9913;51.168;4.124;2024-02-16T00:00:18;6.43;;;3.23;;
19535;SDS011;9913;51.168;4.124;2024-02-16T00:02:47;5.03;;;3.30;;
19535;SDS011;9913;51.168;4.124;2024-02-16T00:05:15;5.90;;;3.57;;
19535;SDS011;9913;51.168;4.124;2024-02-16T00:07:43;6.13;;;3.23;;
19535;SDS011;9913;51.168;4.124;2024-02-16T00:10:13;5.63;;;3.60;;
19535;SDS011;9913;51.168;4.124;2024-02-16T00:12:44;6.60;;;3.00;;
19535;SDS011;9913;51.168;4.124;2024-02-16T00:15:13;6.23;;;3.10;;
19535;SDS011;9913;51.168;4.124;2024-02-16T00:17:41;7.13;;;3.90;;
19535;SDS011;9913;51.168;4.124;2024-02-16T00:20:10;6.67;;;3.10;;
19535;SDS011;9913;51.168;4.124;2024-02-16T00:22:39;5.60;;;3.50;;
19535;SDS011;9913;51.168;4.124;2024-02-16T00:25:07;8.33;;;4.07;;
19535;SDS011;9913;51.168;4.124;2024-02-16T00:27:37;5.33;;;3.40;;
19535;SDS011;9913;51.168;4.124;2024-02-16T00:30:07;6.17;;;3.07;;
19535;SDS011;9913;51.168;4.124;2024-02-16T00:32:37;6.83;;;3.50;;
19535;SDS011;9913;51.168;4.124;2024-02-16T00:35:05;6.43;;;3.20;;
19535;SDS011;9913;51.168;4.124;2024-02-16T00:37:34;6.23;;;3.67;;
19535;SDS011;9913;51.168;4.124;2024-02-16T00:40:02;5.30;;;3.33;;
19535;SDS011;9913;51.168;4.124;2024-02-16T00:42:33;6.80;;;4.20;;
19535;SDS011;9913;51.168;4.124;2024-02-16T00:45:03;5.53;;;3.20;;
19535;SDS011;9913;51.168;4.124;2024-02-16T00:47:31;9.17;;;3.80;;
19535;SDS011;9913;51.168;4.124;2024-02-16T00:50:00;5.77;;;3.80;;
19535;SDS011;9913;51.168;4.124;2024-02-16T00:52:29;7.30;;;3.87;;
19535;SDS011;9913;51.168;4.124;2024-02-16T00:54:58;8.03;;;3.97;;
19535;SDS011;9913;51.168;4.124;2024-02-16T00:57:26;7.93;;;4.00;;
19535;SDS011;9913;51.168;4.124;2024-02-16T00:59:54;5.97;;;3.80;;
19535;SDS011;9913;51.168;4.124;2024-02-16T01:02:24;5.67;;;3.50;;
19535;SDS011;9913;51.168;4.124;2024-02-16T01:04:55;6.37;;;3.87;;
19535;SDS011;9913;51.168;4.124;2024-02-16T01:07:29;7.47;;;4.00;;
19535;SDS011;9913;51.168;4.124;2024-02-16T01:09:59;6.80;;;3.80;;
19535;SDS011;9913;51.168;4.124;2024-02-16T01:12:29;5.73;;;3.47;;
19535;SDS011;9913;51.168;4.124;2024-02-16T01:14:58;7.67;;;4.30;;
19535;SDS011;9913;51.168;4.124;2024-02-16T01:17:29;7.33;;;4.43;;
19535;SDS011;9913;51.168;4.124;2024-02-16T01:19:59;7.63;;;4.20;;
19535;SDS011;9913;51.168;4.124;2024-02-16T01:22:27;6.60;;;3.93;;
19535;SDS011;9913;51.168;4.124;2024-02-16T01:24:57;7.50;;;4.17;;
19535;SDS011;9913;51.168;4.124;2024-02-16T01:27:25;8.27;;;4.40;;
19535;SDS011;9913;51.168;4.124;2024-02-16T01:29:54;7.47;;;4.10;;
19535;SDS011;9913;51.168;4.124;2024-02-16T01:32:23;7.10;;;3.83;;
19535;SDS011;9913;51.168;4.124;2024-02-16T01:34:53;8.73;;;4.03;;
19535;SDS011;9913;51.168;4.124;2024-02-16T01:37:21;7.37;;;3.63;;
19535;SDS011;9913;51.168;4.124;2024-02-16T01:39:49;7.60;;;4.00;;
19535;SDS011;9913;51.168;4.124;2024-02-16T01:42:18;6.37;;;3.60;;
19535;SDS011;9913;51.168;4.124;2024-02-16T01:44:46;6.60;;;3.60;;
19535;SDS011;9913;51.168;4.124;2024-02-16T01:47:15;7.40;;;3.90;;
19535;SDS011;9913;51.168;4.124;2024-02-16T01:49:44;7.13;;;4.20;;
19535;SDS011;9913;51.168;4.124;2024-02-16T01:52:14;6.47;;;3.80;;
19535;SDS011;9913;51.168;4.124;2024-02-16T01:54:42;8.80;;;4.30;;
19535;SDS011;9913;51.168;4.124;2024-02-16T01:57:10;6.87;;;3.80;;
19535;SDS011;9913;51.168;4.124;2024-02-16T01:59:39;5.10;;;3.37;;
19535;SDS011;9913;51.168;4.124;2024-02-16T02:02:08;6.40;;;3.60;;
19535;SDS011;9913;51.168;4.124;2024-02-16T02:04:36;6.47;;;3.40;;
19535;SDS011;9913;51.168;4.124;2024-02-16T02:07:10;5.83;;;3.33;;
19535;SDS011;9913;51.168;4.124;2024-02-16T02:09:41;5.17;;;2.90;;
19535;SDS011;9913;51.168;4.124;2024-02-16T02:12:10;6.40;;;3.77;;
19535;SDS011;9913;51.168;4.124;2024-02-16T02:14:38;5.20;;;3.20;;
19535;SDS011;9913;51.168;4.124;2024-02-16T02:17:08;5.60;;;3.13;;
19535;SDS011;9913;51.168;4.124;2024-02-16T02:19:36;4.77;;;3.03;;
19535;SDS011;9913;51.168;4.124;2024-02-16T02:22:09;7.43;;;3.47;;
19535;SDS011;9913;51.168;4.124;2024-02-16T02:24:40;4.47;;;3.20;;
19535;SDS011;9913;51.168;4.124;2024-02-16T02:27:08;5.10;;;3.13;;
19535;SDS011;9913;51.168;4.124;2024-02-16T02:29:37;4.63;;;3.10;;
19535;SDS011;9913;51.168;4.124;2024-02-16T02:32:05;5.30;;;3.30;;
19535;SDS011;9913;51.168;4.124;2024-02-16T02:34:34;6.83;;;3.37;;
19535;SDS011;9913;51.168;4.124;2024-02-16T02:37:04;6.87;;;4.00;;
19535;SDS011;9913;51.168;4.124;2024-02-16T02:39:33;7.63;;;3.67;;
19535;SDS011;9913;51.168;4.124;2024-02-16T02:42:02;3.90;;;3.20;;
19535;SDS011;9913;51.168;4.124;2024-02-16T02:44:30;6.67;;;3.57;;
19535;SDS011;9913;51.168;4.124;2024-02-16T02:46:59;5.90;;;3.43;;
19535;SDS011;9913;51.168;4.124;2024-02-16T02:49:28;6.90;;;3.50;;
19535;SDS011;9913;51.168;4.124;2024-02-16T02:51:56;5.23;;;3.33;;
19535;SDS011;9913;51.168;4.124;2024-02-16T02:54:24;5.53;;;3.30;;
19535;SDS011;9913;51.168;4.124;2024-02-16T02:56:54;7.27;;;3.43;;
19535;SDS011;9913;51.168;4.124;2024-02-16T02:59:23;5.53;;;3.73;;
19535;SDS011;9913;51.168;4.124;2024-02-16T03:01:51;7.00;;;3.90;;
19535;SDS011;9913;51.168;4.124;2024-02-16T03:04:19;6.23;;;4.03;;
19535;SDS011;9913;51.168;4.124;2024-02-16T03:06:51;6.77;;;4.00;;
19535;SDS011;9913;51.168;4.124;2024-02-16T03:09:19;5.57;;;3.60;;
19535;SDS011;9913;51.168;4.124;2024-02-16T03:11:49;6.50;;;3.53;;
19535;SDS011;9913;51.168;4.124;2024-02-16T03:14:19;6.80;;;3.67;;
19535;SDS011;9913;51.168;4.124;2024-02-16T03:16:47;8.20;;;3.73;;
19535;SDS011;9913;51.168;4.124;2024-02-16T03:19:15;6.23;;;4.10;;
19535;SDS011;9913;51.168;4.124;2024-02-16T03:21:44;5.37;;;3.57;;
19535;SDS011;9913;51.168;4.124;2024-02-16T03:24:14;7.27;;;4.07;;
19535;SDS011;9913;51.168;4.124;2024-02-16T03:26:43;8.47;;;4.50;;
19535;SDS011;9913;51.168;4.124;2024-02-16T03:29:12;7.70;;;3.80;;
19535;SDS011;9913;51.168;4.124;2024-02-16T03:31:41;6.07;;;3.63;;
19535;SDS011;9913;51.168;4.124;2024-02-16T03:34:09;7.03;;;4.33;;
19535;SDS011;9913;51.168;4.124;2024-02-16T03:36:38;7.03;;;4.17;;
19535;SDS011;9913;51.168;4.124;2024-02-16T03:39:06;6.60;;;3.50;;
19535;SDS011;9913;51.168;4.124;2024-02-16T03:41:35;6.50;;;3.70;;
19535;SDS011;9913;51.168;4.124;2024-02-16T03:44:04;7.30;;;4.57;;
19535;SDS011;9913;51.168;4.124;2024-02-16T03:46:33;5.83;;;4.00;;
19535;SDS011;9913;51.168;4.124;2024-02-16T03:49:02;6.40;;;4.30;;
19535;SDS011;9913;51.168;4.124;2024-02-16T03:51:31;7.07;;;3.57;;
19535;SDS011;9913;51.168;4.124;2024-02-16T03:53:59;7.40;;;4.33;;
19535;SDS011;9913;51.168;4.124;2024-02-16T03:56:29;7.27;;;4.07;;
19535;SDS011;9913;51.168;4.124;2024-02-16T03:58:57;9.13;;;4.23;;
19535;SDS011;9913;51.168;4.124;2024-02-16T04:01:25;5.90;;;3.80;;
19535;SDS011;9913;51.168;4.124;2024-02-16T04:03:53;7.00;;;3.97;;
19535;SDS011;9913;51.168;4.124;2024-02-16T04:06:23;6.17;;;4.00;;
19535;SDS011;9913;51.168;4.124;2024-02-16T04:08:51;7.10;;;3.90;;
19535;SDS011;9913;51.168;4.124;2024-02-16T04:11:21;5.33;;;3.77;;
19535;SDS011;9913;51.168;4.124;2024-02-16T04:13:49;6.23;;;3.57;;
19535;SDS011;9913;51.168;4.124;2024-02-16T04:16:18;5.17;;;3.40;;
19535;SDS011;9913;51.168;4.124;2024-02-16T04:18:49;7.43;;;3.90;;
19535;SDS011;9913;51.168;4.124;2024-02-16T04:21:17;5.90;;;3.40;;
19535;SDS011;9913;51.168;4.124;2024-02-16T04:23:48;5.53;;;3.40;;
19535;SDS011;9913;51.168;4.124;2024-02-16T04:26:17;6.83;;;4.20;;
19535;SDS011;9913;51.168;4.124;2024-02-16T04:28:45;5.90;;;4.00;;
19535;SDS011;9913;51.168;4.124;2024-02-16T04:31:14;6.27;;;3.80;;
19535;SDS011;9913;51.168;4.124;2024-02-16T04:33:42;4.97;;;3.43;;
19535;SDS011;9913;51.168;4.124;2024-02-16T04:36:10;6.87;;;4.07;;
19535;SDS011;9913;51.168;4.124;2024-02-16T04:38:39;6.33;;;3.47;;
19535;SDS011;9913;51.168;4.124;2024-02-16T04:41:09;5.23;;;3.57;;
19535;SDS011;9913;51.168;4.124;2024-02-16T04:43:37;6.33;;;3.50;;
19535;SDS011;9913;51.168;4.124;2024-02-16T04:46:05;5.93;;;3.60;;
19535;SDS011;9913;51.168;4.124;2024-02-16T04:48:34;7.00;;;3.77;;
19535;SDS011;9913;51.168;4.124;2024-02-16T04:51:02;6.97;;;3.83;;
19535;SDS011;9913;51.168;4.124;2024-02-16T04:53:30;6.03;;;3.77;;
19535;SDS011;9913;51.168;4.124;2024-02-16T04:55:59;6.50;;;3.90;;
19535;SDS011;9913;51.168;4.124;2024-02-16T04:58:30;6.43;;;3.80;;
19535;SDS011;9913;51.168;4.124;2024-02-16T05:00:59;4.53;;;3.43;;
19535;SDS011;9913;51.168;4.124;2024-02-16T05:03:27;5.00;;;3.57;;
19535;SDS011;9913;51.168;4.124;2024-02-16T05:05:56;5.80;;;3.40;;
19535;SDS011;9913;51.168;4.124;2024-02-16T05:08:24;5.07;;;3.43;;
19535;SDS011;9913;51.168;4.124;2024-02-16T05:10:52;7.13;;;3.77;;
19535;SDS011;9913;51.168;4.124;2024-02-16T05:13:20;5.77;;;3.53;;
19535;SDS011;9913;51.168;4.124;2024-02-16T05:15:50;6.50;;;3.83;;
19535;SDS011;9913;51.168;4.124;2024-02-16T05:18:21;6.43;;;3.60;;
19535;SDS011;9913;51.168;4.124;2024-02-16T05:20:50;5.97;;;4.00;;
19535;SDS011;9913;51.168;4.124;2024-02-16T05:23:18;4.90;;;3.33;;
19535;SDS011;9913;51.168;4.124;2024-02-16T05:25:46;5.43;;;3.50;;
19535;SDS011;9913;51.168;4.124;2024-02-16T05:28:15;5.83;;;3.60;;
19535;SDS011;9913;51.168;4.124;2024-02-16T05:30:43;7.23;;;3.90;;
19535;SDS011;9913;51.168;4.124;2024-02-16T05:33:13;6.20;;;3.73;;
19535;SDS011;9913;51.168;4.124;2024-02-16T05:35:41;6.20;;;3.40;;
19535;SDS011;9913;51.168;4.124;2024-02-16T05:38:11;6.17;;;3.80;;
19535;SDS011;9913;51.168;4.124;2024-02-16T05:40:48;5.30;;;3.70;;
19535;SDS011;9913;51.168;4.124;2024-02-16T05:43:23;6.77;;;3.97;;
19535;SDS011;9913;51.168;4.124;2024-02-16T05:45:51;10.03;;;4.33;;
19535;SDS011;9913;51.168;4.124;2024-02-16T05:48:21;5.40;;;3.77;;
19535;SDS011;9913;51.168;4.124;2024-02-16T05:50:51;6.17;;;3.90;;
19535;SDS011;9913;51.168;4.124;2024-02-16T05:53:20;5.50;;;4.10;;
19535;SDS011;9913;51.168;4.124;2024-02-16T05:55:48;6.27;;;4.00;;
19535;SDS011;9913;51.168;4.124;2024-02-16T05:58:16;4.83;;;3.97;;
19535;SDS011;9913;51.168;4.124;2024-02-16T06:00:44;5.43;;;3.83;;
19535;SDS011;9913;51.168;4.124;2024-02-16T06:03:14;6.40;;;4.13;;
19535;SDS011;9913;51.168;4.124;2024-02-16T06:05:44;6.50;;;3.97;;
19535;SDS011;9913;51.168;4.124;2024-02-16T06:08:12;5.57;;;4.13;;
19535;SDS011;9913;51.168;4.124;2024-02-16T06:10:42;7.00;;;4.20;;
19535;SDS011;9913;51.168;4.124;2024-02-16T06:13:11;6.30;;;4.07;;
19535;SDS011;9913;51.168;4.124;2024-02-16T06:15:39;5.70;;;3.93;;
19535;SDS011;9913;51.168;4.124;2024-02-16T06:18:07;5.53;;;3.37;;
19535;SDS011;9913;51.168;4.124;2024-02-16T06:20:36;8.70;;;4.00;;
19535;SDS011;9913;51.168;4.124;2024-02-16T06:23:06;6.03;;;4.03;;
19535;SDS011;9913;51.168;4.124;2024-02-16T06:25:35;7.63;;;4.30;;
19535;SDS011;9913;51.168;4.124;2024-02-16T06:28:04;5.03;;;3.43;;
19535;SDS011;9913;51.168;4.124;2024-02-16T06:30:33;6.50;;;4.23;;
19535;SDS011;9913;51.168;4.124;2024-02-16T06:33:01;5.20;;;3.70;;
19535;SDS011;9913;51.168;4.124;2024-02-16T06:35:30;6.00;;;4.33;;
19535;SDS011;9913;51.168;4.124;2024-02-16T06:37:58;6.63;;;4.43;;
19535;SDS011;9913;51.168;4.124;2024-02-16T06:40:27;7.33;;;4.50;;
19535;SDS011;9913;51.168;4.124;2024-02-16T06:42:56;7.13;;;4.10;;
19535;SDS011;9913;51.168;4.124;2024-02-16T06:45:24;7.10;;;4.70;;
19535;SDS011;9913;51.168;4.124;2024-02-16T06:47:53;5.60;;;3.80;;
19535;SDS011;9913;51.168;4.124;2024-02-16T06:50:22;7.17;;;4.43;;
19535;SDS011;9913;51.168;4.124;2024-02-16T06:52:51;6.50;;;4.10;;
19535;SDS011;9913;51.168;4.124;2024-02-16T06:55:21;6.30;;;4.30;;
19535;SDS011;9913;51.168;4.124;2024-02-16T06:57:51;7.60;;;4.00;;
19535;SDS011;9913;51.168;4.124;2024-02-16T07:00:19;7.33;;;4.30;;
19535;SDS011;9913;51.168;4.124;2024-02-16T07:02:48;7.40;;;4.27;;
19535;SDS011;9913;51.168;4.124;2024-02-16T07:05:17;5.90;;;4.40;;
19535;SDS011;9913;51.168;4.124;2024-02-16T07:07:45;7.23;;;4.37;;
19535;SDS011;9913;51.168;4.124;2024-02-16T07:10:14;6.67;;;4.30;;
19535;SDS011;9913;51.168;4.124;2024-02-16T07:12:42;8.17;;;4.17;;
19535;SDS011;9913;51.168;4.124;2024-02-16T07:15:13;7.37;;;4.23;;
19535;SDS011;9913;51.168;4.124;2024-02-16T07:17:42;5.80;;;4.00;;
19535;SDS011;9913;51.168;4.124;2024-02-16T07:20:11;6.77;;;3.90;;
19535;SDS011;9913;51.168;4.124;2024-02-16T07:22:42;8.17;;;4.43;;
19535;SDS011;9913;51.168;4.124;2024-02-16T07:25:12;7.17;;;4.23;;
19535;SDS011;9913;51.168;4.124;2024-02-16T07:27:41;8.73;;;4.37;;
19535;SDS011;9913;51.168;4.124;2024-02-16T07:30:09;5.67;;;3.93;;
19535;SDS011;9913;51.168;4.124;2024-02-16T07:32:43;7.77;;;4.13;;
19535;SDS011;9913;51.168;4.124;2024-02-16T07:35:17;5.37;;;4.23;;
19535;SDS011;9913;51.168;4.124;2024-02-16T07:37:49;6.90;;;4.40;;
19535;SDS011;9913;51.168;4.124;2024-02-16T07:40:18;5.53;;;3.70;;
19535;SDS011;9913;51.168;4.124;2024-02-16T07:42:47;8.87;;;4.83;;
19535;SDS011;9913;51.168;4.124;2024-02-16T07:45:15;7.30;;;4.57;;
19535;SDS011;9913;51.168;4.124;2024-02-16T07:47:45;6.63;;;4.00;;
19535;SDS011;9913;51.168;4.124;2024-02-16T07:50:17;7.20;;;3.83;;
19535;SDS011;9913;51.168;4.124;2024-02-16T07:52:47;6.53;;;4.07;;
19535;SDS011;9913;51.168;4.124;2024-02-16T07:55:16;8.70;;;4.10;;
19535;SDS011;9913;51.168;4.124;2024-02-16T07:57:45;7.43;;;3.90;;
19535;SDS011;9913;51.168;4.124;2024-02-16T08:00:14;6.13;;;3.93;;
19535;SDS011;9913;51.168;4.124;2024-02-16T08:02:45;7.33;;;4.67;;
19535;SDS011;9913;51.168;4.124;2024-02-16T08:05:13;6.07;;;4.10;;
19535;SDS011;9913;51.168;4.124;2024-02-16T08:07:46;7.13;;;4.83;;
19535;SDS011;9913;51.168;4.124;2024-02-16T08:10:14;8.07;;;3.97;;
19535;SDS011;9913;51.168;4.124;2024-02-16T08:12:47;6.57;;;4.37;;
19535;SDS011;9913;51.168;4.124;2024-02-16T08:15:16;7.13;;;4.23;;
19535;SDS011;9913;51.168;4.124;2024-02-16T08:17:51;9.93;;;4.17;;
19535;SDS011;9913;51.168;4.124;2024-02-16T08:20:21;7.37;;;4.13;;
19535;SDS011;9913;51.168;4.124;2024-02-16T08:22:49;7.73;;;4.60;;
19535;SDS011;9913;51.168;4.124;2024-02-16T08:25:17;6.87;;;4.13;;
19535;SDS011;9913;51.168;4.124;2024-02-16T08:27:46;6.50;;;4.13;;
19535;SDS011;9913;51.168;4.124;2024-02-16T08:30:16;8.63;;;4.30;;
19535;SDS011;9913;51.168;4.124;2024-02-16T08:32:44;6.20;;;3.47;;
19535;SDS011;9913;51.168;4.124;2024-02-16T08:35:14;9.00;;;4.67;;
19535;SDS011;9913;51.168;4.124;2024-02-16T08:37:44;7.87;;;4.27;;
19535;SDS011;9913;51.168;4.124;2024-02-16T08:40:12;7.93;;;5.07;;
19535;SDS011;9913;51.168;4.124;2024-02-16T08:42:42;6.03;;;3.97;;
19535;SDS011;9913;51.168;4.124;2024-02-16T08:45:10;7.17;;;4.43;;
19535;SDS011;9913;51.168;4.124;2024-02-16T08:47:40;7.53;;;4.03;;
19535;SDS011;9913;51.168;4.124;2024-02-16T08:50:08;8.93;;;4.07;;
19535;SDS011;9913;51.168;4.124;2024-02-16T08:52:39;7.97;;;4.53;;
19535;SDS011;9913;51.168;4.124;2024-02-16T08:55:08;7.53;;;4.93;;
19535;SDS011;9913;51.168;4.124;2024-02-16T08:57:36;6.07;;;4.40;;
19535;SDS011;9913;51.168;4.124;2024-02-16T09:00:05;7.70;;;4.00;;
19535;SDS011;9913;51.168;4.124;2024-02-16T09:02:35;10.73;;;5.60;;
19535;SDS011;9913;51.168;4.124;2024-02-16T09:05:03;7.50;;;4.63;;
19535;SDS011;9913;51.168;4.124;2024-02-16T09:07:32;10.67;;;4.97;;
19535;SDS011;9913;51.168;4.124;2024-02-16T09:10:02;8.73;;;4.63;;
19535;SDS011;9913;51.168;4.124;2024-02-16T09:12:32;10.43;;;5.17;;
19535;SDS011;9913;51.168;4.124;2024-02-16T09:15:00;9.43;;;4.77;;
19535;SDS011;9913;51.168;4.124;2024-02-16T09:17:29;10.37;;;4.77;;
19535;SDS011;9913;51.168;4.124;2024-02-16T09:19:57;7.97;;;4.73;;
19535;SDS011;9913;51.168;4.124;2024-02-16T09:22:26;7.50;;;4.30;;
19535;SDS011;9913;51.168;4.124;2024-02-16T09:24:57;11.53;;;5.40;;
19535;SDS011;9913;51.168;4.124;2024-02-16T09:27:28;9.30;;;5.70;;
19535;SDS011;9913;51.168;4.124;2024-02-16T09:29:56;8.63;;;5.23;;
19535;SDS011;9913;51.168;4.124;2024-02-16T09:32:25;9.63;;;4.97;;
19535;SDS011;9913;51.168;4.124;2024-02-16T09:34:53;11.40;;;5.97;;
19535;SDS011;9913;51.168;4.124;2024-02-16T09:37:23;8.60;;;5.03;;
19535;SDS011;9913;51.168;4.124;2024-02-16T09:39:51;12.53;;;5.97;;
19535;SDS011;9913;51.168;4.124;2024-02-16T09:42:21;9.50;;;5.33;;
19535;SDS011;9913;51.168;4.124;2024-02-16T09:44:55;12.40;;;5.97;;
19535;SDS011;9913;51.168;4.124;2024-02-16T09:47:23;11.47;;;6.43;;
19535;SDS011;9913;51.168;4.124;2024-02-16T09:49:55;10.40;;;6.17;;
19535;SDS011;9913;51.168;4.124;2024-02-16T09:52:24;10.50;;;5.83;;
19535;SDS011;9913;51.168;4.124;2024-02-16T09:54:52;10.27;;;5.73;;
19535;SDS011;9913;51.168;4.124;2024-02-16T09:57:22;9.90;;;6.70;;
19535;SDS011;9913;51.168;4.124;2024-02-16T09:59:50;9.43;;;6.23;;
19535;SDS011;9913;51.168;4.124;2024-02-16T10:02:20;12.33;;;6.40;;
19535;SDS011;9913;51.168;4.124;2024-02-16T10:04:48;11.47;;;6.93;;
19535;SDS011;9913;51.168;4.124;2024-02-16T10:07:17;12.53;;;6.83;;
19535;SDS011;9913;51.168;4.124;2024-02-16T10:09:45;12.30;;;6.67;;
19535;SDS011;9913;51.168;4.124;2024-02-16T10:12:17;11.30;;;7.90;;
19535;SDS011;9913;51.168;4.124;2024-02-16T10:14:53;12.07;;;6.87;;
19535;SDS011;9913;51.168;4.124;2024-02-16T10:17:24;11.10;;;6.33;;
19535;SDS011;9913;51.168;4.124;2024-02-16T10:19:55;9.90;;;7.10;;
19535;SDS011;9913;51.168;4.124;2024-02-16T10:22:24;13.37;;;7.70;;
19535;SDS011;9913;51.168;4.124;2024-02-16T10:24:52;11.53;;;7.50;;
19535;SDS011;9913;51.168;4.124;2024-02-16T10:27:21;12.70;;;8.50;;
19535;SDS011;9913;51.168;4.124;2024-02-16T10:29:50;11.13;;;8.17;;
19535;SDS011;9913;51.168;4.124;2024-02-16T10:32:23;13.10;;;8.10;;
19535;SDS011;9913;51.168;4.124;2024-02-16T10:34:52;11.40;;;8.33;;
19535;SDS011;9913;51.168;4.124;2024-02-16T10:37:23;10.73;;;7.97;;
19535;SDS011;9913;51.168;4.124;2024-02-16T10:39:52;12.87;;;9.30;;
19535;SDS011;9913;51.168;4.124;2024-02-16T10:42:24;12.73;;;8.20;;
19535;SDS011;9913;51.168;4.124;2024-02-16T10:44:55;13.03;;;8.80;;
19535;SDS011;9913;51.168;4.124;2024-02-16T10:47:25;16.47;;;10.93;;
19535;SDS011;9913;51.168;4.124;2024-02-16T10:49:54;15.77;;;9.87;;
19535;SDS011;9913;51.168;4.124;2024-02-16T10:52:23;16.17;;;10.57;;
19535;SDS011;9913;51.168;4.124;2024-02-16T10:54:52;12.00;;;9.47;;
19535;SDS011;9913;51.168;4.124;2024-02-16T10:57:23;11.57;;;8.20;;
19535;SDS011;9913;51.168;4.124;2024-02-16T10:59:52;16.80;;;10.60;;
19535;SDS011;9913;51.168;4.124;2024-02-16T11:02:22;12.97;;;10.73;;
19535;SDS011;9913;51.168;4.124;2024-02-16T11:04:53;15.07;;;10.03;;
19535;SDS011;9913;51.168;4.124;2024-02-16T11:07:22;15.50;;;12.03;;
19535;SDS011;9913;51.168;4.124;2024-02-16T11:09:53;17.27;;;12.10;;
19535;SDS011;9913;51.168;4.124;2024-02-16T11:12:22;15.13;;;11.27;;
19535;SDS011;9913;51.168;4.124;2024-02-16T11:14:50;16.97;;;12.33;;
19535;SDS011;9913;51.168;4.124;2024-02-16T11:17:22;20.23;;;13.40;;
19535;SDS011;9913;51.168;4.124;2024-02-16T11:19:54;20.37;;;13.80;;
19535;SDS011;9913;51.168;4.124;2024-02-16T11:22:28;21.93;;;12.70;;
19535;SDS011;9913;51.168;4.124;2024-02-16T11:24:58;19.03;;;14.57;;
19535;SDS011;9913;51.168;4.124;2024-02-16T11:27:28;24.63;;;17.90;;
19535;SDS011;9913;51.168;4.124;2024-02-16T11:30:01;26.50;;;17.37;;
19535;SDS011;9913;51.168;4.124;2024-02-16T11:32:32;29.73;;;19.67;;
19535;SDS011;9913;51.168;4.124;2024-02-16T11:35:06;26.10;;;19.77;;
19535;SDS011;9913;51.168;4.124;2024-02-16T11:37:35;27.03;;;19.83;;
19535;SDS011;9913;51.168;4.124;2024-02-16T11:40:05;27.50;;;20.83;;
19535;SDS011;9913;51.168;4.124;2024-02-16T11:42:35;28.83;;;20.33;;
19535;SDS011;9913;51.168;4.124;2024-02-16T11:45:04;28.50;;;20.77;;
19535;SDS011;9913;51.168;4.124;2024-02-16T11:47:33;34.83;;;24.83;;
19535;SDS011;9913;51.168;4.124;2024-02-16T11:50:02;31.23;;;23.23;;
19535;SDS011;9913;51.168;4.124;2024-02-16T11:52:33;31.00;;;22.60;;
19535;SDS011;9913;51.168;4.124;2024-02-16T11:55:02;31.47;;;22.13;;
19535;SDS011;9913;51.168;4.124;2024-02-16T11:57:32;23.33;;;15.73;;
19535;SDS011;9913;51.168;4.124;2024-02-16T12:00:01;18.70;;;14.80;;
19535;SDS011;9913;51.168;4.124;2024-02-16T12:02:34;16.40;;;12.03;;
19535;SDS011;9913;51.168;4.124;2024-02-16T12:05:03;15.90;;;11.63;;
19535;SDS011;9913;51.168;4.124;2024-02-16T12:07:34;13.53;;;9.27;;
19535;SDS011;9913;51.168;4.124;2024-02-16T12:10:07;10.47;;;7.73;;
19535;SDS011;9913;51.168;4.124;2024-02-16T12:12:37;10.37;;;7.83;;
19535;SDS011;9913;51.168;4.124;2024-02-16T12:15:06;11.63;;;7.70;;
19535;SDS011;9913;51.168;4.124;2024-02-16T12:17:35;10.20;;;7.57;;
19535;SDS011;9913;51.168;4.124;2024-02-16T12:20:10;12.03;;;8.07;;
19535;SDS011;9913;51.168;4.124;2024-02-16T12:22:41;10.40;;;7.57;;
19535;SDS011;9913;51.168;4.124;2024-02-16T12:25:09;9.47;;;6.73;;
19535;SDS011;9913;51.168;4.124;2024-02-16T12:27:39;9.80;;;7.13;;
19535;SDS011;9913;51.168;4.124;2024-02-16T12:30:08;10.27;;;7.40;;
19535;SDS011;9913;51.168;4.124;2024-02-16T12:32:37;10.23;;;7.20;;
19535;SDS011;9913;51.168;4.124;2024-02-16T12:35:06;9.77;;;7.10;;
19535;SDS011;9913;51.168;4.124;2024-02-16T12:37:36;9.17;;;6.80;;
19535;SDS011;9913;51.168;4.124;2024-02-16T12:40:07;9.17;;;5.87;;
19535;SDS011;9913;51.168;4.124;2024-02-16T12:42:36;9.97;;;6.40;;
19535;SDS011;9913;51.168;4.124;2024-02-16T12:45:05;7.23;;;5.90;;
19535;SDS011;9913;51.168;4.124;2024-02-16T12:47:34;8.60;;;7.17;;
19535;SDS011;9913;51.168;4.124;2024-02-16T12:50:02;8.97;;;5.60;;
19535;SDS011;9913;51.168;4.124;2024-02-16T12:52:32;7.10;;;5.87;;
19535;SDS011;9913;51.168;4.124;2024-02-16T12:55:13;8.77;;;6.33;;
19535;SDS011;9913;51.168;4.124;2024-02-16T12:57:42;11.53;;;7.03;;
19535;SDS011;9913;51.168;4.124;2024-02-16T13:00:12;10.30;;;6.67;;
19535;SDS011;9913;51.168;4.124;2024-02-16T13:02:41;7.87;;;6.00;;
19535;SDS011;9913;51.168;4.124;2024-02-16T13:05:09;8.80;;;5.23;;
19535;SDS011;9913;51.168;4.124;2024-02-16T13:07:38;8.23;;;5.50;;
19535;SDS011;9913;51.168;4.124;2024-02-16T13:10:08;6.67;;;4.13;;
19535;SDS011;9913;51.168;4.124;2024-02-16T13:12:38;6.77;;;4.43;;
19535;SDS011;9913;51.168;4.124;2024-02-16T13:15:09;4.33;;;3.73;;
19535;SDS011;9913;51.168;4.124;2024-02-16T13:17:53;5.20;;;4.10;;
19535;SDS011;9913;51.168;4.124;2024-02-16T13:20:22;3.77;;;3.33;;
19535;SDS011;9913;51.168;4.124;2024-02-16T13:22:51;4.47;;;3.30;;
19535;SDS011;9913;51.168;4.124;2024-02-16T13:25:20;5.67;;;4.00;;
19535;SDS011;9913;51.168;4.124;2024-02-16T13:27:49;6.53;;;4.00;;
19535;SDS011;9913;51.168;4.124;2024-02-16T13:30:18;5.10;;;4.03;;
19535;SDS011;9913;51.168;4.124;2024-02-16T13:32:46;5.30;;;4.13;;
19535;SDS011;9913;51.168;4.124;2024-02-16T13:35:14;6.03;;;4.17;;
19535;SDS011;9913;51.168;4.124;2024-02-16T13:37:47;6.53;;;3.90;;
19535;SDS011;9913;51.168;4.124;2024-02-16T13:40:16;6.87;;;4.40;;
19535;SDS011;9913;51.168;4.124;2024-02-16T13:42:45;6.90;;;4.27;;
19535;SDS011;9913;51.168;4.124;2024-02-16T13:45:16;5.60;;;4.03;;
19535;SDS011;9913;51.168;4.124;2024-02-16T13:47:44;7.97;;;4.27;;
19535;SDS011;9913;51.168;4.124;2024-02-16T13:50:13;4.73;;;4.00;;
19535;SDS011;9913;51.168;4.124;2024-02-16T13:52:42;6.27;;;3.70;;
19535;SDS011;9913;51.168;4.124;2024-02-16T13:55:10;6.33;;;3.73;;
19535;SDS011;9913;51.168;4.124;2024-02-16T13:57:39;5.67;;;4.20;;
19535;SDS011;9913;51.168;4.124;2024-02-16T14:00:07;6.53;;;4.10;;
19535;SDS011;9913;51.168;4.124;2024-02-16T14:02:40;7.47;;;4.40;;
19535;SDS011;9913;51.168;4.124;2024-02-16T14:05:09;4.67;;;3.87;;
19535;SDS011;9913;51.168;4.124;2024-02-16T14:07:37;5.50;;;4.23;;
19535;SDS011;9913;51.168;4.124;2024-02-16T14:10:19;8.43;;;4.57;;
19535;SDS011;9913;51.168;4.124;2024-02-16T14:12:47;5.33;;;4.60;;
19535;SDS011;9913;51.168;4.124;2024-02-16T14:15:16;5.23;;;4.10;;
19535;SDS011;9913;51.168;4.124;2024-02-16T14:17:47;4.70;;;3.50;;
19535;SDS011;9913;51.168;4.124;2024-02-16T14:20:15;4.60;;;3.80;;
19535;SDS011;9913;51.168;4.124;2024-02-16T14:22:44;6.20;;;4.00;;
19535;SDS011;9913;51.168;4.124;2024-02-16T14:25:12;6.17;;;3.37;;
19535;SDS011;9913;51.168;4.124;2024-02-16T14:27:40;5.47;;;3.30;;
19535;SDS011;9913;51.168;4.124;2024-02-16T14:30:10;7.60;;;3.60;;
19535;SDS011;9913;51.168;4.124;2024-02-16T14:32:39;4.33;;;3.53;;
19535;SDS011;9913;51.168;4.124;2024-02-16T14:35:10;4.80;;;3.60;;
19535;SDS011;9913;51.168;4.124;2024-02-16T14:37:38;5.63;;;3.57;;
19535;SDS011;9913;51.168;4.124;2024-02-16T14:40:07;5.67;;;3.77;;
19535;SDS011;9913;51.168;4.124;2024-02-16T14:42:38;4.17;;;2.53;;
19535;SDS011;9913;51.168;4.124;2024-02-16T14:45:07;4.30;;;2.47;;
19535;SDS011;9913;51.168;4.124;2024-02-16T14:47:36;4.87;;;3.30;;
19535;SDS011;9913;51.168;4.124;2024-02-16T14:50:05;5.13;;;3.27;;
19535;SDS011;9913;51.168;4.124;2024-02-16T14:52:36;3.90;;;3.10;;
19535;SDS011;9913;51.168;4.124;2024-02-16T14:55:05;7.17;;;3.00;;
19535;SDS011;9913;51.168;4.124;2024-02-16T14:57:37;3.37;;;2.97;;
19535;SDS011;9913;51.168;4.124;2024-02-16T15:00:07;4.83;;;3.03;;
19535;SDS011;9913;51.168;4.124;2024-02-16T15:02:38;4.50;;;3.10;;
19535;SDS011;9913;51.168;4.124;2024-02-16T15:05:08;5.40;;;2.93;;
19535;SDS011;9913;51.168;4.124;2024-02-16T15:07:38;4.70;;;3.10;;
19535;SDS011;9913;51.168;4.124;2024-02-16T15:10:07;4.67;;;3.40;;